sensor_id;sensor_type;location;lat;lon;timestamp;P1;durP1;ratioP1;P2;durP2;ratioP2
39066;SDS011;24821;51.988;6.020;2022-10-16T00:01:57;11.60;;;10.70;;
39066;SDS011;24821;51.988;6.020;2022-10-16T00:04:23;10.85;;;10.05;;
39066;SDS011;24821;51.988;6.020;2022-10-16T00:06:49;10.07;;;9.40;;
39066;SDS011;24821;51.988;6.020;2022-10-16T00:09:14;9.55;;;8.88;;
39066;SDS011;24821;51.988;6.020;2022-10-16T00:11:40;10.20;;;9.60;;
39066;SDS011;24821;51.988;6.020;2022-10-16T00:14:06;10.52;;;9.80;;
39066;SDS011;24821;51.988;6.020;2022-10-16T00:16:36;10.27;;;9.68;;
39066;SDS011;24821;51.988;6.020;2022-10-16T00:19:02;11.27;;;10.57;;
39066;SDS011;24821;51.988;6.020;2022-10-16T00:21:29;11.55;;;10.73;;
39066;SDS011;24821;51.988;6.020;2022-10-16T00:23:57;10.95;;;10.35;;
39066;SDS011;24821;51.988;6.020;2022-10-16T00:26:25;10.05;;;9.48;;
39066;SDS011;24821;51.988;6.020;2022-10-16T00:28:52;10.52;;;9.73;;
39066;SDS011;24821;51.988;6.020;2022-10-16T00:31:18;10.23;;;9.63;;
39066;SDS011;24821;51.988;6.020;2022-10-16T00:33:46;11.73;;;10.68;;
39066;SDS011;24821;51.988;6.020;2022-10-16T00:36:13;9.93;;;9.25;;
39066;SDS011;24821;51.988;6.020;2022-10-16T00:38:40;11.13;;;10.35;;
39066;SDS011;24821;51.988;6.020;2022-10-16T00:41:06;10.75;;;10.15;;
39066;SDS011;24821;51.988;6.020;2022-10-16T00:43:39;12.05;;;11.32;;
39066;SDS011;24821;51.988;6.020;2022-10-16T00:46:15;11.85;;;10.95;;
39066;SDS011;24821;51.988;6.020;2022-10-16T00:48:45;11.02;;;10.38;;
39066;SDS011;24821;51.988;6.020;2022-10-16T00:51:28;11.35;;;10.52;;
39066;SDS011;24821;51.988;6.020;2022-10-16T00:53:59;11.88;;;10.98;;
39066;SDS011;24821;51.988;6.020;2022-10-16T00:56:27;11.60;;;10.90;;
39066;SDS011;24821;51.988;6.020;2022-10-16T00:58:52;11.07;;;10.32;;
39066;SDS011;24821;51.988;6.020;2022-10-16T01:01:18;11.43;;;10.52;;
39066;SDS011;24821;51.988;6.020;2022-10-16T01:03:44;12.52;;;11.93;;
39066;SDS011;24821;51.988;6.020;2022-10-16T01:08:49;11.05;;;10.43;;
39066;SDS011;24821;51.988;6.020;2022-10-16T01:13:58;10.07;;;9.45;;
39066;SDS011;24821;51.988;6.020;2022-10-16T01:19:04;11.13;;;10.48;;
39066;SDS011;24821;51.988;6.020;2022-10-16T01:21:38;11.00;;;10.40;;
39066;SDS011;24821;51.988;6.020;2022-10-16T01:29:29;9.65;;;8.90;;
39066;SDS011;24821;51.988;6.020;2022-10-16T01:32:25;10.20;;;9.48;;
39066;SDS011;24821;51.988;6.020;2022-10-16T01:35:09;12.85;;;11.95;;
39066;SDS011;24821;51.988;6.020;2022-10-16T01:37:41;12.27;;;11.65;;
39066;SDS011;24821;51.988;6.020;2022-10-16T01:40:14;11.45;;;10.73;;
39066;SDS011;24821;51.988;6.020;2022-10-16T01:42:42;12.43;;;11.65;;
39066;SDS011;24821;51.988;6.020;2022-10-16T01:45:13;11.75;;;11.10;;
39066;SDS011;24821;51.988;6.020;2022-10-16T01:47:43;11.30;;;10.50;;
39066;SDS011;24821;51.988;6.020;2022-10-16T01:50:09;13.25;;;12.35;;
39066;SDS011;24821;51.988;6.020;2022-10-16T01:52:36;12.85;;;11.95;;
39066;SDS011;24821;51.988;6.020;2022-10-16T01:55:05;13.82;;;13.02;;
39066;SDS011;24821;51.988;6.020;2022-10-16T01:57:34;13.35;;;12.65;;
39066;SDS011;24821;51.988;6.020;2022-10-16T02:00:05;14.45;;;13.68;;
39066;SDS011;24821;51.988;6.020;2022-10-16T02:02:35;14.77;;;13.95;;
39066;SDS011;24821;51.988;6.020;2022-10-16T02:05:04;13.98;;;13.18;;
39066;SDS011;24821;51.988;6.020;2022-10-16T02:07:37;13.95;;;13.07;;
39066;SDS011;24821;51.988;6.020;2022-10-16T02:10:03;12.10;;;11.13;;
39066;SDS011;24821;51.988;6.020;2022-10-16T02:12:30;13.18;;;12.48;;
39066;SDS011;24821;51.988;6.020;2022-10-16T02:14:58;15.23;;;14.40;;
39066;SDS011;24821;51.988;6.020;2022-10-16T02:17:24;13.30;;;12.38;;
39066;SDS011;24821;51.988;6.020;2022-10-16T02:19:51;12.55;;;11.75;;
39066;SDS011;24821;51.988;6.020;2022-10-16T02:22:22;14.48;;;13.63;;
39066;SDS011;24821;51.988;6.020;2022-10-16T02:28:00;13.00;;;12.23;;
39066;SDS011;24821;51.988;6.020;2022-10-16T02:33:27;13.57;;;12.88;;
39066;SDS011;24821;51.988;6.020;2022-10-16T02:35:54;12.75;;;12.15;;
39066;SDS011;24821;51.988;6.020;2022-10-16T02:38:20;12.90;;;12.23;;
39066;SDS011;24821;51.988;6.020;2022-10-16T02:40:47;14.02;;;13.25;;
39066;SDS011;24821;51.988;6.020;2022-10-16T02:43:13;11.18;;;10.68;;
39066;SDS011;24821;51.988;6.020;2022-10-16T02:45:40;11.90;;;11.40;;
39066;SDS011;24821;51.988;6.020;2022-10-16T02:48:05;12.98;;;12.38;;
39066;SDS011;24821;51.988;6.020;2022-10-16T02:50:31;13.27;;;12.68;;
39066;SDS011;24821;51.988;6.020;2022-10-16T02:52:57;11.30;;;10.70;;
39066;SDS011;24821;51.988;6.020;2022-10-16T02:55:22;12.85;;;12.25;;
39066;SDS011;24821;51.988;6.020;2022-10-16T02:57:48;12.80;;;12.10;;
39066;SDS011;24821;51.988;6.020;2022-10-16T03:00:15;12.85;;;11.70;;
39066;SDS011;24821;51.988;6.020;2022-10-16T03:02:42;10.20;;;9.65;;
39066;SDS011;24821;51.988;6.020;2022-10-16T03:05:08;11.45;;;10.95;;
39066;SDS011;24821;51.988;6.020;2022-10-16T03:07:35;11.18;;;10.57;;
39066;SDS011;24821;51.988;6.020;2022-10-16T03:10:00;10.85;;;10.25;;
39066;SDS011;24821;51.988;6.020;2022-10-16T03:12:26;13.05;;;12.15;;
39066;SDS011;24821;51.988;6.020;2022-10-16T03:14:52;11.60;;;11.10;;
39066;SDS011;24821;51.988;6.020;2022-10-16T03:17:18;10.82;;;10.27;;
39066;SDS011;24821;51.988;6.020;2022-10-16T03:19:44;13.57;;;12.63;;
39066;SDS011;24821;51.988;6.020;2022-10-16T03:22:09;10.95;;;10.45;;
39066;SDS011;24821;51.988;6.020;2022-10-16T03:24:35;10.95;;;10.35;;
39066;SDS011;24821;51.988;6.020;2022-10-16T03:27:01;11.68;;;11.07;;
39066;SDS011;24821;51.988;6.020;2022-10-16T03:29:27;11.45;;;10.90;;
39066;SDS011;24821;51.988;6.020;2022-10-16T03:31:54;12.15;;;11.55;;
39066;SDS011;24821;51.988;6.020;2022-10-16T03:34:20;11.23;;;10.48;;
39066;SDS011;24821;51.988;6.020;2022-10-16T03:36:45;12.07;;;11.48;;
39066;SDS011;24821;51.988;6.020;2022-10-16T03:39:11;10.38;;;9.82;;
39066;SDS011;24821;51.988;6.020;2022-10-16T03:41:36;11.38;;;10.77;;
39066;SDS011;24821;51.988;6.020;2022-10-16T03:44:02;12.27;;;11.48;;
39066;SDS011;24821;51.988;6.020;2022-10-16T03:46:28;11.18;;;10.57;;
39066;SDS011;24821;51.988;6.020;2022-10-16T03:48:54;13.45;;;12.65;;
39066;SDS011;24821;51.988;6.020;2022-10-16T03:51:19;12.18;;;11.57;;
39066;SDS011;24821;51.988;6.020;2022-10-16T03:53:45;11.88;;;11.27;;
39066;SDS011;24821;51.988;6.020;2022-10-16T03:56:11;11.35;;;10.65;;
39066;SDS011;24821;51.988;6.020;2022-10-16T03:58:36;11.30;;;10.63;;
39066;SDS011;24821;51.988;6.020;2022-10-16T04:01:02;12.25;;;11.70;;
39066;SDS011;24821;51.988;6.020;2022-10-16T04:03:27;12.63;;;12.00;;
39066;SDS011;24821;51.988;6.020;2022-10-16T04:05:53;10.32;;;9.82;;
39066;SDS011;24821;51.988;6.020;2022-10-16T04:08:18;11.65;;;11.10;;
39066;SDS011;24821;51.988;6.020;2022-10-16T04:10:44;10.85;;;10.30;;
39066;SDS011;24821;51.988;6.020;2022-10-16T04:13:10;11.15;;;10.65;;
39066;SDS011;24821;51.988;6.020;2022-10-16T04:15:36;10.90;;;10.40;;
39066;SDS011;24821;51.988;6.020;2022-10-16T04:18:03;12.68;;;11.88;;
39066;SDS011;24821;51.988;6.020;2022-10-16T04:20:28;12.88;;;12.20;;
39066;SDS011;24821;51.988;6.020;2022-10-16T04:22:55;12.60;;;12.00;;
39066;SDS011;24821;51.988;6.020;2022-10-16T04:25:20;11.15;;;10.65;;
39066;SDS011;24821;51.988;6.020;2022-10-16T04:27:46;11.10;;;10.30;;
39066;SDS011;24821;51.988;6.020;2022-10-16T04:30:12;10.68;;;10.27;;
39066;SDS011;24821;51.988;6.020;2022-10-16T04:32:37;9.85;;;9.35;;
39066;SDS011;24821;51.988;6.020;2022-10-16T04:35:03;12.52;;;11.93;;
39066;SDS011;24821;51.988;6.020;2022-10-16T04:37:29;10.40;;;9.90;;
39066;SDS011;24821;51.988;6.020;2022-10-16T04:39:54;11.23;;;10.63;;
39066;SDS011;24821;51.988;6.020;2022-10-16T04:42:20;10.57;;;10.07;;
39066;SDS011;24821;51.988;6.020;2022-10-16T04:44:46;13.38;;;12.68;;
39066;SDS011;24821;51.988;6.020;2022-10-16T04:47:12;10.45;;;9.95;;
39066;SDS011;24821;51.988;6.020;2022-10-16T04:49:37;11.52;;;10.85;;
39066;SDS011;24821;51.988;6.020;2022-10-16T04:52:03;12.07;;;11.48;;
39066;SDS011;24821;51.988;6.020;2022-10-16T04:54:29;11.60;;;11.00;;
39066;SDS011;24821;51.988;6.020;2022-10-16T04:56:54;10.93;;;10.38;;
39066;SDS011;24821;51.988;6.020;2022-10-16T04:59:20;10.05;;;9.57;;
39066;SDS011;24821;51.988;6.020;2022-10-16T05:01:46;13.35;;;12.65;;
39066;SDS011;24821;51.988;6.020;2022-10-16T05:04:11;15.15;;;14.45;;
39066;SDS011;24821;51.988;6.020;2022-10-16T05:06:37;13.02;;;12.40;;
39066;SDS011;24821;51.988;6.020;2022-10-16T05:09:03;11.82;;;11.23;;
39066;SDS011;24821;51.988;6.020;2022-10-16T05:11:33;12.55;;;11.95;;
39066;SDS011;24821;51.988;6.020;2022-10-16T05:13:59;12.15;;;11.55;;
39066;SDS011;24821;51.988;6.020;2022-10-16T05:16:25;12.07;;;11.38;;
39066;SDS011;24821;51.988;6.020;2022-10-16T05:18:51;13.60;;;13.00;;
39066;SDS011;24821;51.988;6.020;2022-10-16T05:21:16;11.75;;;11.25;;
39066;SDS011;24821;51.988;6.020;2022-10-16T05:23:42;10.90;;;10.43;;
39066;SDS011;24821;51.988;6.020;2022-10-16T05:26:07;11.57;;;11.02;;
39066;SDS011;24821;51.988;6.020;2022-10-16T05:28:33;12.57;;;11.98;;
39066;SDS011;24821;51.988;6.020;2022-10-16T05:30:59;11.00;;;10.50;;
39066;SDS011;24821;51.988;6.020;2022-10-16T05:33:28;11.85;;;11.25;;
39066;SDS011;24821;51.988;6.020;2022-10-16T05:35:54;9.70;;;9.25;;
39066;SDS011;24821;51.988;6.020;2022-10-16T05:38:19;10.90;;;10.02;;
39066;SDS011;24821;51.988;6.020;2022-10-16T05:40:50;13.73;;;12.98;;
39066;SDS011;24821;51.988;6.020;2022-10-16T05:43:17;8.65;;;8.25;;
39066;SDS011;24821;51.988;6.020;2022-10-16T05:45:43;11.20;;;10.60;;
39066;SDS011;24821;51.988;6.020;2022-10-16T05:48:08;10.35;;;9.73;;
39066;SDS011;24821;51.988;6.020;2022-10-16T05:50:34;8.80;;;8.40;;
39066;SDS011;24821;51.988;6.020;2022-10-16T05:52:59;11.00;;;10.35;;
39066;SDS011;24821;51.988;6.020;2022-10-16T05:55:25;9.57;;;9.07;;
39066;SDS011;24821;51.988;6.020;2022-10-16T05:57:53;11.18;;;10.38;;
39066;SDS011;24821;51.988;6.020;2022-10-16T06:00:19;10.98;;;10.48;;
39066;SDS011;24821;51.988;6.020;2022-10-16T06:02:45;10.60;;;9.88;;
39066;SDS011;24821;51.988;6.020;2022-10-16T06:05:10;10.27;;;9.82;;
39066;SDS011;24821;51.988;6.020;2022-10-16T06:07:36;11.73;;;11.13;;
39066;SDS011;24821;51.988;6.020;2022-10-16T06:10:02;10.20;;;9.68;;
39066;SDS011;24821;51.988;6.020;2022-10-16T06:12:29;12.73;;;11.68;;
39066;SDS011;24821;51.988;6.020;2022-10-16T06:14:54;13.60;;;12.85;;
39066;SDS011;24821;51.988;6.020;2022-10-16T06:17:20;10.65;;;10.15;;
39066;SDS011;24821;51.988;6.020;2022-10-16T06:19:45;11.00;;;10.50;;
39066;SDS011;24821;51.988;6.020;2022-10-16T06:22:11;11.23;;;10.60;;
39066;SDS011;24821;51.988;6.020;2022-10-16T06:24:37;12.25;;;11.55;;
39066;SDS011;24821;51.988;6.020;2022-10-16T06:27:03;11.80;;;11.20;;
39066;SDS011;24821;51.988;6.020;2022-10-16T06:29:29;10.63;;;10.13;;
39066;SDS011;24821;51.988;6.020;2022-10-16T06:31:54;12.18;;;11.55;;
39066;SDS011;24821;51.988;6.020;2022-10-16T06:34:20;14.05;;;13.43;;
39066;SDS011;24821;51.988;6.020;2022-10-16T06:36:45;12.88;;;12.25;;
39066;SDS011;24821;51.988;6.020;2022-10-16T06:39:11;11.45;;;10.65;;
39066;SDS011;24821;51.988;6.020;2022-10-16T06:41:37;10.30;;;9.80;;
39066;SDS011;24821;51.988;6.020;2022-10-16T06:44:06;11.13;;;10.50;;
39066;SDS011;24821;51.988;6.020;2022-10-16T06:46:32;12.48;;;11.77;;
39066;SDS011;24821;51.988;6.020;2022-10-16T06:48:58;9.60;;;9.13;;
39066;SDS011;24821;51.988;6.020;2022-10-16T06:51:24;12.23;;;11.52;;
39066;SDS011;24821;51.988;6.020;2022-10-16T06:53:51;12.65;;;12.05;;
39066;SDS011;24821;51.988;6.020;2022-10-16T06:56:22;11.35;;;10.55;;
39066;SDS011;24821;51.988;6.020;2022-10-16T06:58:50;13.50;;;12.80;;
39066;SDS011;24821;51.988;6.020;2022-10-16T07:01:17;12.35;;;11.80;;
39066;SDS011;24821;51.988;6.020;2022-10-16T07:03:44;12.90;;;12.10;;
39066;SDS011;24821;51.988;6.020;2022-10-16T07:06:11;10.57;;;9.93;;
39066;SDS011;24821;51.988;6.020;2022-10-16T07:08:40;11.80;;;11.10;;
39066;SDS011;24821;51.988;6.020;2022-10-16T07:11:08;11.10;;;10.30;;
39066;SDS011;24821;51.988;6.020;2022-10-16T07:13:35;16.00;;;14.60;;
39066;SDS011;24821;51.988;6.020;2022-10-16T07:16:08;10.82;;;10.27;;
39066;SDS011;24821;51.988;6.020;2022-10-16T07:18:36;9.57;;;9.07;;
39066;SDS011;24821;51.988;6.020;2022-10-16T07:21:07;10.18;;;9.57;;
39066;SDS011;24821;51.988;6.020;2022-10-16T07:23:34;11.13;;;10.43;;
39066;SDS011;24821;51.988;6.020;2022-10-16T07:26:00;12.38;;;11.57;;
39066;SDS011;24821;51.988;6.020;2022-10-16T07:28:25;13.38;;;12.68;;
39066;SDS011;24821;51.988;6.020;2022-10-16T07:30:51;14.07;;;13.10;;
39066;SDS011;24821;51.988;6.020;2022-10-16T07:33:17;15.13;;;14.23;;
39066;SDS011;24821;51.988;6.020;2022-10-16T07:35:52;14.00;;;13.10;;
39066;SDS011;24821;51.988;6.020;2022-10-16T07:38:20;12.90;;;12.00;;
39066;SDS011;24821;51.988;6.020;2022-10-16T07:40:45;13.30;;;12.25;;
39066;SDS011;24821;51.988;6.020;2022-10-16T07:43:11;12.00;;;11.38;;
39066;SDS011;24821;51.988;6.020;2022-10-16T07:45:37;11.75;;;11.05;;
39066;SDS011;24821;51.988;6.020;2022-10-16T07:48:03;12.18;;;11.48;;
39066;SDS011;24821;51.988;6.020;2022-10-16T07:50:29;12.25;;;11.65;;
39066;SDS011;24821;51.988;6.020;2022-10-16T07:52:54;16.67;;;15.68;;
39066;SDS011;24821;51.988;6.020;2022-10-16T07:55:20;11.80;;;11.20;;
39066;SDS011;24821;51.988;6.020;2022-10-16T07:57:45;11.45;;;10.68;;
39066;SDS011;24821;51.988;6.020;2022-10-16T08:00:11;11.88;;;11.23;;
39066;SDS011;24821;51.988;6.020;2022-10-16T08:02:39;11.88;;;11.18;;
39066;SDS011;24821;51.988;6.020;2022-10-16T08:05:05;12.45;;;11.75;;
39066;SDS011;24821;51.988;6.020;2022-10-16T08:07:31;13.43;;;12.70;;
39066;SDS011;24821;51.988;6.020;2022-10-16T08:09:57;10.68;;;10.07;;
39066;SDS011;24821;51.988;6.020;2022-10-16T08:12:23;14.20;;;13.50;;
39066;SDS011;24821;51.988;6.020;2022-10-16T08:14:50;13.30;;;12.25;;
39066;SDS011;24821;51.988;6.020;2022-10-16T08:17:16;12.48;;;11.85;;
39066;SDS011;24821;51.988;6.020;2022-10-16T08:19:45;10.73;;;10.13;;
39066;SDS011;24821;51.988;6.020;2022-10-16T08:22:12;22.27;;;20.98;;
39066;SDS011;24821;51.988;6.020;2022-10-16T08:24:38;10.70;;;10.10;;
39066;SDS011;24821;51.988;6.020;2022-10-16T08:27:03;11.70;;;10.80;;
39066;SDS011;24821;51.988;6.020;2022-10-16T08:29:29;12.20;;;11.23;;
39066;SDS011;24821;51.988;6.020;2022-10-16T08:31:55;11.38;;;10.82;;
39066;SDS011;24821;51.988;6.020;2022-10-16T08:34:20;10.90;;;10.20;;
39066;SDS011;24821;51.988;6.020;2022-10-16T08:36:46;13.18;;;12.48;;
39066;SDS011;24821;51.988;6.020;2022-10-16T08:39:11;9.65;;;9.13;;
39066;SDS011;24821;51.988;6.020;2022-10-16T08:47:12;9.80;;;9.05;;
39066;SDS011;24821;51.988;6.020;2022-10-16T08:50:00;8.82;;;8.25;;
39066;SDS011;24821;51.988;6.020;2022-10-16T08:52:34;8.10;;;7.60;;
39066;SDS011;24821;51.988;6.020;2022-10-16T08:55:03;10.60;;;10.10;;
39066;SDS011;24821;51.988;6.020;2022-10-16T08:57:29;10.45;;;9.82;;
39066;SDS011;24821;51.988;6.020;2022-10-16T08:59:58;12.32;;;11.63;;
39066;SDS011;24821;51.988;6.020;2022-10-16T09:02:51;6.10;;;5.78;;
39066;SDS011;24821;51.988;6.020;2022-10-16T09:05:38;8.75;;;8.05;;
39066;SDS011;24821;51.988;6.020;2022-10-16T09:08:15;7.82;;;7.32;;
39066;SDS011;24821;51.988;6.020;2022-10-16T09:16:36;8.20;;;7.60;;
39066;SDS011;24821;51.988;6.020;2022-10-16T09:19:13;9.15;;;8.65;;
39066;SDS011;24821;51.988;6.020;2022-10-16T09:21:45;7.85;;;7.15;;
39066;SDS011;24821;51.988;6.020;2022-10-16T09:26:39;8.45;;;7.95;;
39066;SDS011;24821;51.988;6.020;2022-10-16T09:29:05;12.55;;;11.82;;
39066;SDS011;24821;51.988;6.020;2022-10-16T09:31:31;9.68;;;8.88;;
39066;SDS011;24821;51.988;6.020;2022-10-16T09:33:58;10.18;;;9.32;;
39066;SDS011;24821;51.988;6.020;2022-10-16T09:36:29;11.50;;;10.90;;
39066;SDS011;24821;51.988;6.020;2022-10-16T09:39:07;11.63;;;11.02;;
39066;SDS011;24821;51.988;6.020;2022-10-16T09:41:35;11.98;;;11.25;;
39066;SDS011;24821;51.988;6.020;2022-10-16T09:44:02;12.23;;;11.52;;
39066;SDS011;24821;51.988;6.020;2022-10-16T09:46:32;11.30;;;10.60;;
39066;SDS011;24821;51.988;6.020;2022-10-16T09:49:04;12.25;;;11.43;;
39066;SDS011;24821;51.988;6.020;2022-10-16T09:51:42;11.82;;;11.02;;
39066;SDS011;24821;51.988;6.020;2022-10-16T09:56:34;10.50;;;9.82;;
39066;SDS011;24821;51.988;6.020;2022-10-16T09:59:09;12.73;;;11.82;;
39066;SDS011;24821;51.988;6.020;2022-10-16T10:01:44;12.15;;;11.30;;
39066;SDS011;24821;51.988;6.020;2022-10-16T10:04:11;11.02;;;10.23;;
39066;SDS011;24821;51.988;6.020;2022-10-16T10:06:41;11.18;;;10.35;;
39066;SDS011;24821;51.988;6.020;2022-10-16T10:11:50;10.98;;;10.27;;
39066;SDS011;24821;51.988;6.020;2022-10-16T10:16:46;12.95;;;10.00;;
39066;SDS011;24821;51.988;6.020;2022-10-16T10:19:17;11.82;;;8.30;;
39066;SDS011;24821;51.988;6.020;2022-10-16T10:21:44;7.80;;;7.13;;
39066;SDS011;24821;51.988;6.020;2022-10-16T10:24:11;11.27;;;10.10;;
39066;SDS011;24821;51.988;6.020;2022-10-16T10:26:46;10.13;;;7.22;;
39066;SDS011;24821;51.988;6.020;2022-10-16T10:34:54;9.45;;;7.43;;
39066;SDS011;24821;51.988;6.020;2022-10-16T10:40:15;7.97;;;6.55;;
39066;SDS011;24821;51.988;6.020;2022-10-16T10:45:41;7.57;;;6.93;;
39066;SDS011;24821;51.988;6.020;2022-10-16T10:51:10;11.90;;;7.80;;
39066;SDS011;24821;51.988;6.020;2022-10-16T10:56:16;7.05;;;6.35;;
39066;SDS011;24821;51.988;6.020;2022-10-16T11:04:11;7.88;;;3.90;;
39066;SDS011;24821;51.988;6.020;2022-10-16T11:09:28;10.43;;;9.45;;
39066;SDS011;24821;51.988;6.020;2022-10-16T11:12:05;15.10;;;13.82;;
39066;SDS011;24821;51.988;6.020;2022-10-16T11:14:40;17.52;;;16.33;;
39066;SDS011;24821;51.988;6.020;2022-10-16T11:17:20;8.65;;;7.90;;
39066;SDS011;24821;51.988;6.020;2022-10-16T11:19:54;6.75;;;6.22;;
39066;SDS011;24821;51.988;6.020;2022-10-16T11:25:38;11.25;;;10.45;;
39066;SDS011;24821;51.988;6.020;2022-10-16T11:28:17;10.80;;;9.98;;
39066;SDS011;24821;51.988;6.020;2022-10-16T11:38:47;10.27;;;9.18;;
39066;SDS011;24821;51.988;6.020;2022-10-16T11:49:50;9.73;;;8.23;;
39066;SDS011;24821;51.988;6.020;2022-10-16T11:55:23;11.48;;;9.50;;
39066;SDS011;24821;51.988;6.020;2022-10-16T11:57:51;9.60;;;8.18;;
39066;SDS011;24821;51.988;6.020;2022-10-16T12:00:28;9.50;;;8.90;;
39066;SDS011;24821;51.988;6.020;2022-10-16T12:03:10;11.13;;;10.30;;
39066;SDS011;24821;51.988;6.020;2022-10-16T12:06:05;9.07;;;8.18;;
39066;SDS011;24821;51.988;6.020;2022-10-16T12:08:50;12.60;;;8.85;;
39066;SDS011;24821;51.988;6.020;2022-10-16T12:13:51;8.15;;;7.38;;
39066;SDS011;24821;51.988;6.020;2022-10-16T12:16:28;10.23;;;9.30;;
39066;SDS011;24821;51.988;6.020;2022-10-16T12:19:09;8.13;;;7.43;;
39066;SDS011;24821;51.988;6.020;2022-10-16T12:21:40;7.45;;;6.88;;
39066;SDS011;24821;51.988;6.020;2022-10-16T12:24:18;9.65;;;8.70;;
39066;SDS011;24821;51.988;6.020;2022-10-16T12:26:51;9.52;;;8.57;;
39066;SDS011;24821;51.988;6.020;2022-10-16T12:29:28;7.30;;;6.20;;
39066;SDS011;24821;51.988;6.020;2022-10-16T12:31:58;8.73;;;7.93;;
39066;SDS011;24821;51.988;6.020;2022-10-16T12:37:20;13.70;;;8.47;;
39066;SDS011;24821;51.988;6.020;2022-10-16T12:39:51;9.87;;;7.80;;
39066;SDS011;24821;51.988;6.020;2022-10-16T12:44:50;12.35;;;7.45;;
39066;SDS011;24821;51.988;6.020;2022-10-16T12:47:51;6.38;;;5.57;;
39066;SDS011;24821;51.988;6.020;2022-10-16T12:53:19;7.20;;;4.32;;
39066;SDS011;24821;51.988;6.020;2022-10-16T12:58:47;8.70;;;4.50;;
39066;SDS011;24821;51.988;6.020;2022-10-16T13:01:29;8.13;;;5.38;;
39066;SDS011;24821;51.988;6.020;2022-10-16T13:04:29;8.60;;;5.55;;
39066;SDS011;24821;51.988;6.020;2022-10-16T13:09:37;4.78;;;4.38;;
39066;SDS011;24821;51.988;6.020;2022-10-16T13:12:22;7.25;;;4.18;;
39066;SDS011;24821;51.988;6.020;2022-10-16T13:17:52;6.05;;;4.28;;
39066;SDS011;24821;51.988;6.020;2022-10-16T13:20:36;3.70;;;3.33;;
39066;SDS011;24821;51.988;6.020;2022-10-16T13:23:16;6.72;;;3.88;;
39066;SDS011;24821;51.988;6.020;2022-10-16T13:28:33;5.63;;;4.72;;
39066;SDS011;24821;51.988;6.020;2022-10-16T13:31:00;4.70;;;3.72;;
39066;SDS011;24821;51.988;6.020;2022-10-16T13:33:35;5.90;;;3.50;;
39066;SDS011;24821;51.988;6.020;2022-10-16T13:36:03;4.57;;;3.15;;
39066;SDS011;24821;51.988;6.020;2022-10-16T13:38:34;12.40;;;4.70;;
39066;SDS011;24821;51.988;6.020;2022-10-16T13:41:01;4.97;;;4.13;;
39066;SDS011;24821;51.988;6.020;2022-10-16T13:43:39;5.53;;;4.45;;
39066;SDS011;24821;51.988;6.020;2022-10-16T13:46:18;5.90;;;5.38;;
39066;SDS011;24821;51.988;6.020;2022-10-16T13:48:45;6.57;;;4.13;;
39066;SDS011;24821;51.988;6.020;2022-10-16T13:51:36;5.60;;;4.10;;
39066;SDS011;24821;51.988;6.020;2022-10-16T13:54:02;10.88;;;4.72;;
39066;SDS011;24821;51.988;6.020;2022-10-16T13:56:28;12.98;;;4.70;;
39066;SDS011;24821;51.988;6.020;2022-10-16T13:59:02;7.05;;;3.42;;
39066;SDS011;24821;51.988;6.020;2022-10-16T14:01:30;5.60;;;4.28;;
39066;SDS011;24821;51.988;6.020;2022-10-16T14:04:18;5.40;;;3.08;;
39066;SDS011;24821;51.988;6.020;2022-10-16T14:06:45;4.57;;;3.42;;
39066;SDS011;24821;51.988;6.020;2022-10-16T14:09:22;6.63;;;3.42;;
39066;SDS011;24821;51.988;6.020;2022-10-16T14:11:56;4.70;;;3.30;;
39066;SDS011;24821;51.988;6.020;2022-10-16T14:14:41;3.72;;;2.90;;
39066;SDS011;24821;51.988;6.020;2022-10-16T14:17:16;6.50;;;3.22;;
39066;SDS011;24821;51.988;6.020;2022-10-16T14:19:47;5.10;;;3.63;;
39066;SDS011;24821;51.988;6.020;2022-10-16T14:22:48;5.40;;;3.75;;
39066;SDS011;24821;51.988;6.020;2022-10-16T14:25:20;7.47;;;3.33;;
39066;SDS011;24821;51.988;6.020;2022-10-16T14:28:35;9.93;;;4.07;;
39066;SDS011;24821;51.988;6.020;2022-10-16T14:30:53;6.28;;;3.33;;
39066;SDS011;24821;51.988;6.020;2022-10-16T14:33:22;5.45;;;3.50;;
39066;SDS011;24821;51.988;6.020;2022-10-16T14:36:11;3.67;;;3.33;;
39066;SDS011;24821;51.988;6.020;2022-10-16T14:38:40;3.10;;;2.80;;
39066;SDS011;24821;51.988;6.020;2022-10-16T14:41:07;4.30;;;3.22;;
39066;SDS011;24821;51.988;6.020;2022-10-16T14:43:34;5.47;;;4.00;;
39066;SDS011;24821;51.988;6.020;2022-10-16T14:46:12;3.63;;;2.80;;
39066;SDS011;24821;51.988;6.020;2022-10-16T14:48:40;5.18;;;3.67;;
39066;SDS011;24821;51.988;6.020;2022-10-16T14:51:14;6.28;;;3.53;;
39066;SDS011;24821;51.988;6.020;2022-10-16T14:53:40;5.28;;;3.85;;
39066;SDS011;24821;51.988;6.020;2022-10-16T14:56:07;4.22;;;3.05;;
39066;SDS011;24821;51.988;6.020;2022-10-16T14:58:39;4.55;;;3.67;;
39066;SDS011;24821;51.988;6.020;2022-10-16T15:01:04;6.30;;;3.70;;
39066;SDS011;24821;51.988;6.020;2022-10-16T15:03:31;4.70;;;3.38;;
39066;SDS011;24821;51.988;6.020;2022-10-16T15:05:57;6.40;;;3.60;;
39066;SDS011;24821;51.988;6.020;2022-10-16T15:08:22;4.68;;;3.58;;
39066;SDS011;24821;51.988;6.020;2022-10-16T15:10:48;5.38;;;4.00;;
39066;SDS011;24821;51.988;6.020;2022-10-16T15:13:13;6.03;;;3.72;;
39066;SDS011;24821;51.988;6.020;2022-10-16T15:15:45;4.50;;;3.63;;
39066;SDS011;24821;51.988;6.020;2022-10-16T15:18:14;4.03;;;3.70;;
39066;SDS011;24821;51.988;6.020;2022-10-16T15:20:44;3.63;;;3.15;;
39066;SDS011;24821;51.988;6.020;2022-10-16T15:23:15;5.00;;;3.88;;
39066;SDS011;24821;51.988;6.020;2022-10-16T15:25:52;6.30;;;3.30;;
39066;SDS011;24821;51.988;6.020;2022-10-16T15:28:19;4.43;;;4.00;;
39066;SDS011;24821;51.988;6.020;2022-10-16T15:30:45;6.35;;;4.38;;
39066;SDS011;24821;51.988;6.020;2022-10-16T15:33:15;4.97;;;4.00;;
39066;SDS011;24821;51.988;6.020;2022-10-16T15:35:49;4.85;;;4.38;;
39066;SDS011;24821;51.988;6.020;2022-10-16T15:38:16;6.28;;;3.72;;
39066;SDS011;24821;51.988;6.020;2022-10-16T15:40:43;7.18;;;5.53;;
39066;SDS011;24821;51.988;6.020;2022-10-16T15:43:08;8.45;;;4.90;;
39066;SDS011;24821;51.988;6.020;2022-10-16T15:45:35;5.28;;;4.30;;
39066;SDS011;24821;51.988;6.020;2022-10-16T15:48:00;6.30;;;4.20;;
39066;SDS011;24821;51.988;6.020;2022-10-16T15:50:26;4.30;;;3.83;;
39066;SDS011;24821;51.988;6.020;2022-10-16T15:52:52;3.95;;;3.67;;
39066;SDS011;24821;51.988;6.020;2022-10-16T15:55:17;6.78;;;3.90;;
39066;SDS011;24821;51.988;6.020;2022-10-16T15:57:43;4.55;;;4.13;;
39066;SDS011;24821;51.988;6.020;2022-10-16T16:00:11;8.95;;;4.40;;
39066;SDS011;24821;51.988;6.020;2022-10-16T16:02:39;5.05;;;4.10;;
39066;SDS011;24821;51.988;6.020;2022-10-16T16:05:06;8.20;;;4.43;;
39066;SDS011;24821;51.988;6.020;2022-10-16T16:07:33;5.57;;;5.07;;
39066;SDS011;24821;51.988;6.020;2022-10-16T16:10:00;3.88;;;3.58;;
39066;SDS011;24821;51.988;6.020;2022-10-16T16:12:26;5.65;;;5.15;;
39066;SDS011;24821;51.988;6.020;2022-10-16T16:14:51;7.25;;;6.30;;
39066;SDS011;24821;51.988;6.020;2022-10-16T16:17:17;9.35;;;8.65;;
39066;SDS011;24821;51.988;6.020;2022-10-16T16:19:43;8.88;;;8.07;;
39066;SDS011;24821;51.988;6.020;2022-10-16T16:22:08;9.75;;;7.38;;
39066;SDS011;24821;51.988;6.020;2022-10-16T16:24:34;6.57;;;6.18;;
39066;SDS011;24821;51.988;6.020;2022-10-16T16:26:59;8.10;;;7.50;;
39066;SDS011;24821;51.988;6.020;2022-10-16T16:29:25;7.22;;;6.63;;
39066;SDS011;24821;51.988;6.020;2022-10-16T16:31:50;8.40;;;7.47;;
39066;SDS011;24821;51.988;6.020;2022-10-16T16:34:22;7.95;;;7.40;;